sensor_id;sensor_type;location;lat;lon;timestamp;P1;durP1;ratioP1;P2;durP2;ratioP2
32533;SDS011;18973;48.580;8.912;2023-06-22T00:00:42;9.10;;;7.18;;
32533;SDS011;18973;48.580;8.912;2023-06-22T00:03:09;11.25;;;6.53;;
32533;SDS011;18973;48.580;8.912;2023-06-22T00:05:35;11.88;;;6.30;;
32533;SDS011;18973;48.580;8.912;2023-06-22T00:08:04;10.35;;;7.05;;
32533;SDS011;18973;48.580;8.912;2023-06-22T00:10:30;10.18;;;7.22;;
32533;SDS011;18973;48.580;8.912;2023-06-22T00:12:56;10.25;;;6.85;;
32533;SDS011;18973;48.580;8.912;2023-06-22T00:15:22;9.80;;;7.25;;
32533;SDS011;18973;48.580;8.912;2023-06-22T00:17:47;11.98;;;7.90;;
32533;SDS011;18973;48.580;8.912;2023-06-22T00:20:14;11.68;;;8.25;;
32533;SDS011;18973;48.580;8.912;2023-06-22T00:22:41;15.00;;;8.35;;
32533;SDS011;18973;48.580;8.912;2023-06-22T00:25:08;14.98;;;7.65;;
32533;SDS011;18973;48.580;8.912;2023-06-22T00:27:34;10.52;;;7.47;;
32533;SDS011;18973;48.580;8.912;2023-06-22T00:30:00;16.92;;;8.95;;
32533;SDS011;18973;48.580;8.912;2023-06-22T00:32:25;11.85;;;8.27;;
32533;SDS011;18973;48.580;8.912;2023-06-22T00:34:51;9.82;;;7.72;;
32533;SDS011;18973;48.580;8.912;2023-06-22T00:37:17;10.95;;;8.25;;
32533;SDS011;18973;48.580;8.912;2023-06-22T00:39:43;12.45;;;8.82;;
32533;SDS011;18973;48.580;8.912;2023-06-22T00:42:09;10.32;;;7.35;;
32533;SDS011;18973;48.580;8.912;2023-06-22T00:44:35;11.07;;;7.47;;
32533;SDS011;18973;48.580;8.912;2023-06-22T00:47:01;10.82;;;8.55;;
32533;SDS011;18973;48.580;8.912;2023-06-22T00:49:27;11.05;;;8.35;;
32533;SDS011;18973;48.580;8.912;2023-06-22T00:51:53;10.75;;;8.13;;
32533;SDS011;18973;48.580;8.912;2023-06-22T00:54:20;11.43;;;8.18;;
32533;SDS011;18973;48.580;8.912;2023-06-22T00:56:58;12.35;;;8.90;;
32533;SDS011;18973;48.580;8.912;2023-06-22T01:01:51;13.18;;;7.85;;
32533;SDS011;18973;48.580;8.912;2023-06-22T01:04:17;10.85;;;8.50;;
32533;SDS011;18973;48.580;8.912;2023-06-22T01:07:02;11.50;;;8.45;;
32533;SDS011;18973;48.580;8.912;2023-06-22T01:09:36;16.70;;;8.98;;
32533;SDS011;18973;48.580;8.912;2023-06-22T01:12:06;12.48;;;9.05;;
32533;SDS011;18973;48.580;8.912;2023-06-22T01:14:41;13.45;;;8.95;;
32533;SDS011;18973;48.580;8.912;2023-06-22T01:17:12;14.82;;;9.57;;
32533;SDS011;18973;48.580;8.912;2023-06-22T01:19:51;19.17;;;10.63;;
32533;SDS011;18973;48.580;8.912;2023-06-22T01:22:22;13.52;;;9.60;;
32533;SDS011;18973;48.580;8.912;2023-06-22T01:27:56;14.10;;;9.30;;
32533;SDS011;18973;48.580;8.912;2023-06-22T01:30:30;14.93;;;10.00;;
32533;SDS011;18973;48.580;8.912;2023-06-22T01:32:59;14.15;;;9.43;;
32533;SDS011;18973;48.580;8.912;2023-06-22T01:35:28;14.68;;;9.77;;
32533;SDS011;18973;48.580;8.912;2023-06-22T01:37:54;12.68;;;9.55;;
32533;SDS011;18973;48.580;8.912;2023-06-22T01:40:20;17.42;;;9.90;;
32533;SDS011;18973;48.580;8.912;2023-06-22T01:42:47;14.20;;;9.18;;
32533;SDS011;18973;48.580;8.912;2023-06-22T01:45:14;17.13;;;10.07;;
32533;SDS011;18973;48.580;8.912;2023-06-22T01:47:41;15.15;;;9.93;;
32533;SDS011;18973;48.580;8.912;2023-06-22T01:50:07;15.07;;;10.30;;
32533;SDS011;18973;48.580;8.912;2023-06-22T01:52:34;16.88;;;11.10;;
32533;SDS011;18973;48.580;8.912;2023-06-22T01:55:00;13.75;;;9.80;;
32533;SDS011;18973;48.580;8.912;2023-06-22T01:57:26;13.10;;;9.73;;
32533;SDS011;18973;48.580;8.912;2023-06-22T02:02:23;14.95;;;10.73;;
32533;SDS011;18973;48.580;8.912;2023-06-22T02:05:03;13.43;;;9.80;;
32533;SDS011;18973;48.580;8.912;2023-06-22T02:07:33;13.27;;;9.70;;
32533;SDS011;18973;48.580;8.912;2023-06-22T02:10:09;14.32;;;9.68;;
32533;SDS011;18973;48.580;8.912;2023-06-22T02:12:38;13.15;;;9.50;;
32533;SDS011;18973;48.580;8.912;2023-06-22T02:15:05;12.65;;;9.70;;
32533;SDS011;18973;48.580;8.912;2023-06-22T02:17:32;15.73;;;10.85;;
32533;SDS011;18973;48.580;8.912;2023-06-22T02:19:58;14.10;;;9.35;;
32533;SDS011;18973;48.580;8.912;2023-06-22T02:22:26;11.73;;;8.82;;
32533;SDS011;18973;48.580;8.912;2023-06-22T02:24:51;14.65;;;8.90;;
32533;SDS011;18973;48.580;8.912;2023-06-22T02:27:18;13.82;;;8.60;;
32533;SDS011;18973;48.580;8.912;2023-06-22T02:29:43;14.00;;;9.55;;
32533;SDS011;18973;48.580;8.912;2023-06-22T02:32:09;15.23;;;8.13;;
32533;SDS011;18973;48.580;8.912;2023-06-22T02:34:35;15.48;;;8.77;;
32533;SDS011;18973;48.580;8.912;2023-06-22T02:37:01;14.35;;;8.98;;
32533;SDS011;18973;48.580;8.912;2023-06-22T02:39:27;10.93;;;8.23;;
32533;SDS011;18973;48.580;8.912;2023-06-22T02:41:53;14.02;;;8.90;;
32533;SDS011;18973;48.580;8.912;2023-06-22T02:44:20;10.55;;;7.57;;
32533;SDS011;18973;48.580;8.912;2023-06-22T02:46:46;14.32;;;7.53;;
32533;SDS011;18973;48.580;8.912;2023-06-22T02:49:12;11.57;;;7.53;;
32533;SDS011;18973;48.580;8.912;2023-06-22T02:51:39;16.88;;;8.43;;
32533;SDS011;18973;48.580;8.912;2023-06-22T02:54:10;12.45;;;9.52;;
32533;SDS011;18973;48.580;8.912;2023-06-22T02:56:36;13.32;;;8.13;;
32533;SDS011;18973;48.580;8.912;2023-06-22T02:59:02;10.57;;;7.88;;
32533;SDS011;18973;48.580;8.912;2023-06-22T03:01:28;14.40;;;10.13;;
32533;SDS011;18973;48.580;8.912;2023-06-22T03:03:55;18.20;;;9.60;;
32533;SDS011;18973;48.580;8.912;2023-06-22T03:06:21;15.77;;;9.20;;
32533;SDS011;18973;48.580;8.912;2023-06-22T03:08:48;13.85;;;10.00;;
32533;SDS011;18973;48.580;8.912;2023-06-22T03:11:14;15.55;;;9.73;;
32533;SDS011;18973;48.580;8.912;2023-06-22T03:13:40;14.05;;;10.27;;
32533;SDS011;18973;48.580;8.912;2023-06-22T03:16:06;15.57;;;9.75;;
32533;SDS011;18973;48.580;8.912;2023-06-22T03:18:32;18.90;;;8.85;;
32533;SDS011;18973;48.580;8.912;2023-06-22T03:20:57;16.48;;;10.13;;
32533;SDS011;18973;48.580;8.912;2023-06-22T03:23:23;16.88;;;10.02;;
32533;SDS011;18973;48.580;8.912;2023-06-22T03:25:49;18.20;;;11.15;;
32533;SDS011;18973;48.580;8.912;2023-06-22T03:28:15;14.20;;;9.80;;
32533;SDS011;18973;48.580;8.912;2023-06-22T03:30:40;13.82;;;10.05;;
32533;SDS011;18973;48.580;8.912;2023-06-22T03:33:06;11.60;;;9.02;;
32533;SDS011;18973;48.580;8.912;2023-06-22T03:35:32;17.85;;;9.38;;
32533;SDS011;18973;48.580;8.912;2023-06-22T03:37:57;18.35;;;10.43;;
32533;SDS011;18973;48.580;8.912;2023-06-22T03:40:23;16.38;;;9.77;;
32533;SDS011;18973;48.580;8.912;2023-06-22T03:42:49;13.55;;;9.60;;
32533;SDS011;18973;48.580;8.912;2023-06-22T03:45:15;15.13;;;9.63;;
32533;SDS011;18973;48.580;8.912;2023-06-22T03:47:41;12.30;;;9.30;;
32533;SDS011;18973;48.580;8.912;2023-06-22T03:50:06;15.63;;;10.18;;
32533;SDS011;18973;48.580;8.912;2023-06-22T03:52:32;14.82;;;9.25;;
32533;SDS011;18973;48.580;8.912;2023-06-22T03:54:58;13.35;;;8.55;;
32533;SDS011;18973;48.580;8.912;2023-06-22T03:57:24;10.90;;;9.25;;
32533;SDS011;18973;48.580;8.912;2023-06-22T03:59:49;14.95;;;8.65;;
32533;SDS011;18973;48.580;8.912;2023-06-22T04:02:15;18.27;;;8.68;;
32533;SDS011;18973;48.580;8.912;2023-06-22T04:04:41;13.02;;;8.57;;
32533;SDS011;18973;48.580;8.912;2023-06-22T04:07:07;14.60;;;9.30;;
32533;SDS011;18973;48.580;8.912;2023-06-22T04:09:33;13.13;;;9.07;;
32533;SDS011;18973;48.580;8.912;2023-06-22T04:11:59;11.13;;;7.05;;
32533;SDS011;18973;48.580;8.912;2023-06-22T04:14:26;11.45;;;7.63;;
32533;SDS011;18973;48.580;8.912;2023-06-22T04:16:52;11.77;;;8.68;;
32533;SDS011;18973;48.580;8.912;2023-06-22T04:19:17;13.73;;;8.13;;
32533;SDS011;18973;48.580;8.912;2023-06-22T04:21:43;12.43;;;8.85;;
32533;SDS011;18973;48.580;8.912;2023-06-22T04:24:09;10.05;;;7.95;;
32533;SDS011;18973;48.580;8.912;2023-06-22T04:26:38;12.60;;;7.90;;
32533;SDS011;18973;48.580;8.912;2023-06-22T04:29:06;13.95;;;8.10;;
32533;SDS011;18973;48.580;8.912;2023-06-22T04:31:34;10.32;;;7.72;;
32533;SDS011;18973;48.580;8.912;2023-06-22T04:34:06;12.02;;;7.72;;
32533;SDS011;18973;48.580;8.912;2023-06-22T04:36:36;11.95;;;8.55;;
32533;SDS011;18973;48.580;8.912;2023-06-22T04:39:08;12.23;;;7.55;;
32533;SDS011;18973;48.580;8.912;2023-06-22T04:41:36;11.80;;;7.97;;
32533;SDS011;18973;48.580;8.912;2023-06-22T04:44:12;15.75;;;8.90;;
32533;SDS011;18973;48.580;8.912;2023-06-22T04:46:38;11.57;;;7.63;;
32533;SDS011;18973;48.580;8.912;2023-06-22T04:49:05;9.68;;;6.93;;
32533;SDS011;18973;48.580;8.912;2023-06-22T04:51:34;11.90;;;7.40;;
32533;SDS011;18973;48.580;8.912;2023-06-22T04:54:09;9.00;;;8.05;;
32533;SDS011;18973;48.580;8.912;2023-06-22T04:56:35;14.60;;;7.72;;
32533;SDS011;18973;48.580;8.912;2023-06-22T04:59:00;11.60;;;7.82;;
32533;SDS011;18973;48.580;8.912;2023-06-22T05:01:26;12.80;;;7.82;;
32533;SDS011;18973;48.580;8.912;2023-06-22T05:03:52;11.65;;;6.97;;
32533;SDS011;18973;48.580;8.912;2023-06-22T05:06:22;11.93;;;7.65;;
32533;SDS011;18973;48.580;8.912;2023-06-22T05:08:53;9.95;;;7.15;;
32533;SDS011;18973;48.580;8.912;2023-06-22T05:11:22;11.07;;;7.22;;
32533;SDS011;18973;48.580;8.912;2023-06-22T05:13:52;12.35;;;7.30;;
32533;SDS011;18973;48.580;8.912;2023-06-22T05:16:18;11.35;;;7.10;;
32533;SDS011;18973;48.580;8.912;2023-06-22T05:18:49;11.73;;;6.63;;
32533;SDS011;18973;48.580;8.912;2023-06-22T05:21:15;14.35;;;7.18;;
32533;SDS011;18973;48.580;8.912;2023-06-22T05:23:41;10.60;;;6.90;;
32533;SDS011;18973;48.580;8.912;2023-06-22T05:26:07;16.45;;;6.78;;
32533;SDS011;18973;48.580;8.912;2023-06-22T05:28:34;8.50;;;6.13;;
32533;SDS011;18973;48.580;8.912;2023-06-22T05:31:00;12.77;;;6.57;;
32533;SDS011;18973;48.580;8.912;2023-06-22T05:33:25;9.23;;;6.53;;
32533;SDS011;18973;48.580;8.912;2023-06-22T05:35:51;10.95;;;6.30;;
32533;SDS011;18973;48.580;8.912;2023-06-22T05:38:17;10.27;;;6.55;;
32533;SDS011;18973;48.580;8.912;2023-06-22T05:40:42;15.35;;;6.88;;
32533;SDS011;18973;48.580;8.912;2023-06-22T05:43:08;7.43;;;6.15;;
32533;SDS011;18973;48.580;8.912;2023-06-22T05:45:34;9.27;;;6.13;;
32533;SDS011;18973;48.580;8.912;2023-06-22T05:47:59;13.23;;;7.20;;
32533;SDS011;18973;48.580;8.912;2023-06-22T05:50:26;10.48;;;5.88;;
32533;SDS011;18973;48.580;8.912;2023-06-22T05:52:52;11.00;;;5.90;;
32533;SDS011;18973;48.580;8.912;2023-06-22T05:55:17;8.25;;;5.25;;
32533;SDS011;18973;48.580;8.912;2023-06-22T05:57:44;11.35;;;5.82;;
32533;SDS011;18973;48.580;8.912;2023-06-22T06:00:10;6.57;;;5.10;;
32533;SDS011;18973;48.580;8.912;2023-06-22T06:02:36;14.88;;;7.28;;
32533;SDS011;18973;48.580;8.912;2023-06-22T06:05:09;8.52;;;4.93;;
32533;SDS011;18973;48.580;8.912;2023-06-22T06:07:35;8.90;;;5.22;;
32533;SDS011;18973;48.580;8.912;2023-06-22T06:10:02;11.35;;;6.50;;
32533;SDS011;18973;48.580;8.912;2023-06-22T06:12:29;7.93;;;5.95;;
32533;SDS011;18973;48.580;8.912;2023-06-22T06:14:55;11.10;;;5.47;;
32533;SDS011;18973;48.580;8.912;2023-06-22T06:17:21;6.82;;;5.00;;
32533;SDS011;18973;48.580;8.912;2023-06-22T06:19:47;8.00;;;4.63;;
32533;SDS011;18973;48.580;8.912;2023-06-22T06:22:12;7.97;;;4.78;;
32533;SDS011;18973;48.580;8.912;2023-06-22T06:24:38;9.13;;;4.53;;
32533;SDS011;18973;48.580;8.912;2023-06-22T06:27:04;9.55;;;5.15;;
32533;SDS011;18973;48.580;8.912;2023-06-22T06:29:31;12.45;;;5.07;;
32533;SDS011;18973;48.580;8.912;2023-06-22T06:31:57;9.55;;;5.07;;
32533;SDS011;18973;48.580;8.912;2023-06-22T06:34:22;6.90;;;4.35;;
32533;SDS011;18973;48.580;8.912;2023-06-22T06:36:48;6.28;;;4.15;;
32533;SDS011;18973;48.580;8.912;2023-06-22T06:39:14;7.28;;;4.43;;
32533;SDS011;18973;48.580;8.912;2023-06-22T06:41:41;7.75;;;4.35;;
32533;SDS011;18973;48.580;8.912;2023-06-22T06:44:06;10.40;;;4.10;;
32533;SDS011;18973;48.580;8.912;2023-06-22T06:46:32;10.68;;;4.28;;
32533;SDS011;18973;48.580;8.912;2023-06-22T06:48:58;7.63;;;4.75;;
32533;SDS011;18973;48.580;8.912;2023-06-22T06:51:23;11.30;;;4.07;;
32533;SDS011;18973;48.580;8.912;2023-06-22T06:53:49;8.13;;;4.63;;
32533;SDS011;18973;48.580;8.912;2023-06-22T06:56:15;9.20;;;3.95;;
32533;SDS011;18973;48.580;8.912;2023-06-22T06:58:41;8.23;;;4.18;;
32533;SDS011;18973;48.580;8.912;2023-06-22T07:01:07;16.40;;;5.07;;
32533;SDS011;18973;48.580;8.912;2023-06-22T07:03:33;9.63;;;4.63;;
32533;SDS011;18973;48.580;8.912;2023-06-22T07:05:59;12.93;;;4.20;;
32533;SDS011;18973;48.580;8.912;2023-06-22T07:08:25;12.05;;;4.30;;
32533;SDS011;18973;48.580;8.912;2023-06-22T07:10:51;9.63;;;4.63;;
32533;SDS011;18973;48.580;8.912;2023-06-22T07:13:17;7.78;;;4.28;;
32533;SDS011;18973;48.580;8.912;2023-06-22T07:15:43;9.20;;;4.72;;
32533;SDS011;18973;48.580;8.912;2023-06-22T07:18:09;10.40;;;4.80;;
32533;SDS011;18973;48.580;8.912;2023-06-22T07:20:35;12.88;;;5.63;;
32533;SDS011;18973;48.580;8.912;2023-06-22T07:23:00;10.80;;;4.43;;
32533;SDS011;18973;48.580;8.912;2023-06-22T07:25:26;11.88;;;4.97;;
32533;SDS011;18973;48.580;8.912;2023-06-22T07:28:00;11.38;;;5.15;;
32533;SDS011;18973;48.580;8.912;2023-06-22T07:30:30;8.77;;;4.28;;
32533;SDS011;18973;48.580;8.912;2023-06-22T07:32:57;10.43;;;5.25;;
32533;SDS011;18973;48.580;8.912;2023-06-22T07:35:24;11.70;;;5.47;;
32533;SDS011;18973;48.580;8.912;2023-06-22T07:37:50;12.40;;;5.13;;
32533;SDS011;18973;48.580;8.912;2023-06-22T07:40:15;7.90;;;4.78;;
32533;SDS011;18973;48.580;8.912;2023-06-22T07:42:41;13.70;;;5.20;;
32533;SDS011;18973;48.580;8.912;2023-06-22T07:45:07;9.23;;;4.80;;
32533;SDS011;18973;48.580;8.912;2023-06-22T07:47:33;10.60;;;4.70;;
32533;SDS011;18973;48.580;8.912;2023-06-22T07:50:00;17.02;;;5.18;;
32533;SDS011;18973;48.580;8.912;2023-06-22T07:52:27;11.77;;;4.90;;
32533;SDS011;18973;48.580;8.912;2023-06-22T07:54:53;10.90;;;4.95;;
32533;SDS011;18973;48.580;8.912;2023-06-22T07:57:19;12.40;;;4.95;;
32533;SDS011;18973;48.580;8.912;2023-06-22T07:59:45;10.65;;;5.18;;
32533;SDS011;18973;48.580;8.912;2023-06-22T08:02:11;9.55;;;4.65;;
32533;SDS011;18973;48.580;8.912;2023-06-22T08:04:37;12.98;;;5.03;;
32533;SDS011;18973;48.580;8.912;2023-06-22T08:07:03;10.38;;;5.35;;
32533;SDS011;18973;48.580;8.912;2023-06-22T08:09:31;8.45;;;5.20;;
32533;SDS011;18973;48.580;8.912;2023-06-22T08:11:58;14.00;;;5.18;;
32533;SDS011;18973;48.580;8.912;2023-06-22T08:14:27;10.55;;;5.50;;
32533;SDS011;18973;48.580;8.912;2023-06-22T08:16:54;10.40;;;4.63;;
32533;SDS011;18973;48.580;8.912;2023-06-22T08:19:20;9.45;;;5.10;;
32533;SDS011;18973;48.580;8.912;2023-06-22T08:21:46;8.40;;;5.15;;
32533;SDS011;18973;48.580;8.912;2023-06-22T08:24:11;11.60;;;5.03;;
32533;SDS011;18973;48.580;8.912;2023-06-22T08:26:37;12.32;;;6.57;;
32533;SDS011;18973;48.580;8.912;2023-06-22T08:29:03;11.13;;;5.47;;
32533;SDS011;18973;48.580;8.912;2023-06-22T08:31:30;9.30;;;5.47;;
32533;SDS011;18973;48.580;8.912;2023-06-22T08:33:56;14.73;;;5.75;;
32533;SDS011;18973;48.580;8.912;2023-06-22T08:36:21;15.32;;;5.75;;
32533;SDS011;18973;48.580;8.912;2023-06-22T08:38:47;9.45;;;4.70;;
32533;SDS011;18973;48.580;8.912;2023-06-22T08:41:16;9.25;;;5.68;;
32533;SDS011;18973;48.580;8.912;2023-06-22T08:43:42;13.50;;;5.63;;
32533;SDS011;18973;48.580;8.912;2023-06-22T08:46:09;10.43;;;4.93;;
32533;SDS011;18973;48.580;8.912;2023-06-22T08:48:38;10.65;;;6.00;;
32533;SDS011;18973;48.580;8.912;2023-06-22T08:51:04;16.45;;;5.32;;
32533;SDS011;18973;48.580;8.912;2023-06-22T08:53:30;11.43;;;5.70;;
32533;SDS011;18973;48.580;8.912;2023-06-22T08:55:55;9.73;;;5.47;;
32533;SDS011;18973;48.580;8.912;2023-06-22T08:58:21;8.02;;;5.10;;
32533;SDS011;18973;48.580;8.912;2023-06-22T09:00:49;11.80;;;5.65;;
32533;SDS011;18973;48.580;8.912;2023-06-22T09:03:16;8.52;;;5.40;;
32533;SDS011;18973;48.580;8.912;2023-06-22T09:05:42;15.23;;;5.85;;
32533;SDS011;18973;48.580;8.912;2023-06-22T09:08:07;12.38;;;5.45;;
32533;SDS011;18973;48.580;8.912;2023-06-22T09:10:33;12.00;;;5.65;;
32533;SDS011;18973;48.580;8.912;2023-06-22T09:12:59;15.27;;;5.75;;
32533;SDS011;18973;48.580;8.912;2023-06-22T09:15:24;12.75;;;5.65;;
32533;SDS011;18973;48.580;8.912;2023-06-22T09:17:50;12.93;;;5.68;;
32533;SDS011;18973;48.580;8.912;2023-06-22T09:20:19;11.68;;;5.22;;
32533;SDS011;18973;48.580;8.912;2023-06-22T09:22:44;10.80;;;5.45;;
32533;SDS011;18973;48.580;8.912;2023-06-22T09:25:10;14.18;;;6.07;;
32533;SDS011;18973;48.580;8.912;2023-06-22T09:27:36;11.30;;;6.25;;
32533;SDS011;18973;48.580;8.912;2023-06-22T09:30:02;15.25;;;6.00;;
32533;SDS011;18973;48.580;8.912;2023-06-22T09:32:28;8.27;;;5.53;;
32533;SDS011;18973;48.580;8.912;2023-06-22T09:34:54;16.33;;;6.22;;
32533;SDS011;18973;48.580;8.912;2023-06-22T09:37:20;14.65;;;6.15;;
32533;SDS011;18973;48.580;8.912;2023-06-22T09:39:45;15.10;;;6.75;;
32533;SDS011;18973;48.580;8.912;2023-06-22T09:42:11;13.98;;;5.95;;
32533;SDS011;18973;48.580;8.912;2023-06-22T09:44:38;13.00;;;5.90;;
32533;SDS011;18973;48.580;8.912;2023-06-22T09:47:04;10.25;;;6.20;;
32533;SDS011;18973;48.580;8.912;2023-06-22T09:49:30;12.25;;;5.05;;
32533;SDS011;18973;48.580;8.912;2023-06-22T09:51:56;9.05;;;4.63;;
32533;SDS011;18973;48.580;8.912;2023-06-22T09:54:22;16.92;;;6.13;;
32533;SDS011;18973;48.580;8.912;2023-06-22T09:56:48;12.07;;;6.18;;
32533;SDS011;18973;48.580;8.912;2023-06-22T09:59:13;15.52;;;5.55;;
32533;SDS011;18973;48.580;8.912;2023-06-22T10:01:39;11.48;;;5.75;;
32533;SDS011;18973;48.580;8.912;2023-06-22T10:04:05;13.68;;;6.63;;
32533;SDS011;18973;48.580;8.912;2023-06-22T10:06:30;11.30;;;5.97;;
32533;SDS011;18973;48.580;8.912;2023-06-22T10:08:56;13.70;;;5.78;;
32533;SDS011;18973;48.580;8.912;2023-06-22T10:11:22;13.68;;;5.78;;
32533;SDS011;18973;48.580;8.912;2023-06-22T10:13:54;8.32;;;4.93;;
32533;SDS011;18973;48.580;8.912;2023-06-22T10:16:19;13.73;;;4.97;;
32533;SDS011;18973;48.580;8.912;2023-06-22T10:18:45;18.85;;;5.65;;
32533;SDS011;18973;48.580;8.912;2023-06-22T10:21:11;18.73;;;5.90;;
32533;SDS011;18973;48.580;8.912;2023-06-22T10:23:36;13.07;;;5.03;;
32533;SDS011;18973;48.580;8.912;2023-06-22T10:26:02;8.52;;;4.95;;
32533;SDS011;18973;48.580;8.912;2023-06-22T10:28:28;16.88;;;5.72;;
32533;SDS011;18973;48.580;8.912;2023-06-22T10:30:53;15.32;;;5.82;;
32533;SDS011;18973;48.580;8.912;2023-06-22T10:33:19;16.00;;;6.25;;
32533;SDS011;18973;48.580;8.912;2023-06-22T10:35:45;17.83;;;6.97;;
32533;SDS011;18973;48.580;8.912;2023-06-22T10:38:11;13.70;;;5.20;;
32533;SDS011;18973;48.580;8.912;2023-06-22T10:40:36;10.25;;;5.55;;
32533;SDS011;18973;48.580;8.912;2023-06-22T10:43:04;11.93;;;5.72;;
32533;SDS011;18973;48.580;8.912;2023-06-22T10:45:30;17.05;;;6.13;;
32533;SDS011;18973;48.580;8.912;2023-06-22T10:47:55;11.95;;;5.63;;
32533;SDS011;18973;48.580;8.912;2023-06-22T10:50:21;11.48;;;5.45;;
32533;SDS011;18973;48.580;8.912;2023-06-22T10:52:49;14.23;;;5.70;;
32533;SDS011;18973;48.580;8.912;2023-06-22T10:55:14;12.45;;;5.40;;
32533;SDS011;18973;48.580;8.912;2023-06-22T10:57:40;11.77;;;5.05;;
32533;SDS011;18973;48.580;8.912;2023-06-22T11:00:09;11.27;;;5.45;;
32533;SDS011;18973;48.580;8.912;2023-06-22T11:02:36;13.02;;;5.35;;
32533;SDS011;18973;48.580;8.912;2023-06-22T11:05:02;11.27;;;5.32;;
32533;SDS011;18973;48.580;8.912;2023-06-22T11:07:28;15.52;;;5.80;;
32533;SDS011;18973;48.580;8.912;2023-06-22T11:09:54;14.98;;;5.57;;
32533;SDS011;18973;48.580;8.912;2023-06-22T11:12:20;9.38;;;5.30;;
32533;SDS011;18973;48.580;8.912;2023-06-22T11:14:46;9.25;;;4.88;;
32533;SDS011;18973;48.580;8.912;2023-06-22T11:17:11;14.48;;;6.45;;
32533;SDS011;18973;48.580;8.912;2023-06-22T11:19:37;12.70;;;4.85;;
32533;SDS011;18973;48.580;8.912;2023-06-22T11:22:03;11.88;;;5.85;;
32533;SDS011;18973;48.580;8.912;2023-06-22T11:24:29;15.98;;;5.32;;
32533;SDS011;18973;48.580;8.912;2023-06-22T11:26:54;17.27;;;5.90;;
32533;SDS011;18973;48.580;8.912;2023-06-22T11:29:20;12.82;;;5.35;;
32533;SDS011;18973;48.580;8.912;2023-06-22T11:31:46;12.93;;;5.70;;
32533;SDS011;18973;48.580;8.912;2023-06-22T11:34:12;14.82;;;5.03;;
32533;SDS011;18973;48.580;8.912;2023-06-22T11:36:37;13.60;;;5.50;;
32533;SDS011;18973;48.580;8.912;2023-06-22T11:39:03;9.27;;;5.78;;
32533;SDS011;18973;48.580;8.912;2023-06-22T11:41:30;9.65;;;5.22;;
32533;SDS011;18973;48.580;8.912;2023-06-22T11:43:55;15.95;;;5.25;;
32533;SDS011;18973;48.580;8.912;2023-06-22T11:46:21;13.68;;;5.70;;
32533;SDS011;18973;48.580;8.912;2023-06-22T11:48:47;13.40;;;5.60;;
32533;SDS011;18973;48.580;8.912;2023-06-22T11:51:12;15.60;;;4.95;;
32533;SDS011;18973;48.580;8.912;2023-06-22T11:53:38;11.50;;;4.65;;
32533;SDS011;18973;48.580;8.912;2023-06-22T11:56:04;10.82;;;5.20;;
32533;SDS011;18973;48.580;8.912;2023-06-22T11:58:29;13.68;;;5.15;;
32533;SDS011;18973;48.580;8.912;2023-06-22T12:00:55;10.63;;;5.35;;
32533;SDS011;18973;48.580;8.912;2023-06-22T12:03:21;17.73;;;5.35;;
32533;SDS011;18973;48.580;8.912;2023-06-22T12:05:46;12.85;;;5.43;;
32533;SDS011;18973;48.580;8.912;2023-06-22T12:08:13;13.90;;;5.72;;
32533;SDS011;18973;48.580;8.912;2023-06-22T12:10:39;12.80;;;4.30;;
32533;SDS011;18973;48.580;8.912;2023-06-22T12:13:05;13.00;;;5.00;;
32533;SDS011;18973;48.580;8.912;2023-06-22T12:15:30;19.02;;;6.28;;
32533;SDS011;18973;48.580;8.912;2023-06-22T12:17:56;12.85;;;5.30;;
32533;SDS011;18973;48.580;8.912;2023-06-22T12:20:22;13.88;;;5.93;;
32533;SDS011;18973;48.580;8.912;2023-06-22T12:22:47;18.98;;;5.70;;
32533;SDS011;18973;48.580;8.912;2023-06-22T12:25:16;12.43;;;5.57;;
32533;SDS011;18973;48.580;8.912;2023-06-22T12:27:42;10.48;;;5.05;;
32533;SDS011;18973;48.580;8.912;2023-06-22T12:30:08;13.57;;;5.80;;
32533;SDS011;18973;48.580;8.912;2023-06-22T12:32:34;8.85;;;4.93;;
32533;SDS011;18973;48.580;8.912;2023-06-22T12:35:00;9.30;;;4.90;;
32533;SDS011;18973;48.580;8.912;2023-06-22T12:37:25;13.80;;;6.32;;
32533;SDS011;18973;48.580;8.912;2023-06-22T12:39:51;12.82;;;5.57;;
32533;SDS011;18973;48.580;8.912;2023-06-22T12:42:18;25.35;;;5.70;;
32533;SDS011;18973;48.580;8.912;2023-06-22T12:44:43;13.80;;;5.95;;
32533;SDS011;18973;48.580;8.912;2023-06-22T12:47:09;12.07;;;6.20;;
32533;SDS011;18973;48.580;8.912;2023-06-22T12:49:36;14.15;;;6.15;;
32533;SDS011;18973;48.580;8.912;2023-06-22T12:52:02;14.13;;;5.75;;
32533;SDS011;18973;48.580;8.912;2023-06-22T12:54:28;15.77;;;5.57;;
32533;SDS011;18973;48.580;8.912;2023-06-22T12:56:54;20.70;;;6.10;;
32533;SDS011;18973;48.580;8.912;2023-06-22T12:59:21;15.20;;;6.60;;
32533;SDS011;18973;48.580;8.912;2023-06-22T13:01:47;11.65;;;6.18;;
32533;SDS011;18973;48.580;8.912;2023-06-22T13:04:12;14.52;;;5.40;;
32533;SDS011;18973;48.580;8.912;2023-06-22T13:06:40;17.70;;;5.35;;
32533;SDS011;18973;48.580;8.912;2023-06-22T13:09:12;13.25;;;5.65;;
32533;SDS011;18973;48.580;8.912;2023-06-22T13:11:42;14.68;;;5.50;;
32533;SDS011;18973;48.580;8.912;2023-06-22T13:14:08;17.23;;;6.93;;
32533;SDS011;18973;48.580;8.912;2023-06-22T13:16:34;11.52;;;5.78;;
32533;SDS011;18973;48.580;8.912;2023-06-22T13:19:00;13.32;;;6.07;;
32533;SDS011;18973;48.580;8.912;2023-06-22T13:21:25;12.65;;;5.55;;
32533;SDS011;18973;48.580;8.912;2023-06-22T13:23:51;13.40;;;5.47;;
32533;SDS011;18973;48.580;8.912;2023-06-22T13:26:17;14.18;;;5.63;;
32533;SDS011;18973;48.580;8.912;2023-06-22T13:28:43;17.50;;;5.75;;
32533;SDS011;18973;48.580;8.912;2023-06-22T13:31:08;11.55;;;5.68;;
32533;SDS011;18973;48.580;8.912;2023-06-22T13:33:34;11.27;;;5.35;;
32533;SDS011;18973;48.580;8.912;2023-06-22T13:36:00;12.45;;;6.25;;
32533;SDS011;18973;48.580;8.912;2023-06-22T13:38:28;9.07;;;5.45;;
32533;SDS011;18973;48.580;8.912;2023-06-22T13:40:54;11.10;;;6.00;;
32533;SDS011;18973;48.580;8.912;2023-06-22T13:43:22;12.85;;;6.05;;
32533;SDS011;18973;48.580;8.912;2023-06-22T13:45:48;12.00;;;5.43;;
32533;SDS011;18973;48.580;8.912;2023-06-22T13:48:14;13.27;;;6.03;;
32533;SDS011;18973;48.580;8.912;2023-06-22T13:50:40;14.15;;;6.05;;
32533;SDS011;18973;48.580;8.912;2023-06-22T13:53:05;15.80;;;5.28;;
32533;SDS011;18973;48.580;8.912;2023-06-22T13:55:31;17.70;;;6.15;;
32533;SDS011;18973;48.580;8.912;2023-06-22T13:57:57;9.80;;;5.18;;
32533;SDS011;18973;48.580;8.912;2023-06-22T14:00:22;14.65;;;6.30;;
32533;SDS011;18973;48.580;8.912;2023-06-22T14:02:48;14.60;;;6.03;;
32533;SDS011;18973;48.580;8.912;2023-06-22T14:05:14;17.48;;;6.35;;
32533;SDS011;18973;48.580;8.912;2023-06-22T14:07:39;16.73;;;5.90;;
32533;SDS011;18973;48.580;8.912;2023-06-22T14:10:05;12.15;;;5.90;;
32533;SDS011;18973;48.580;8.912;2023-06-22T14:12:31;15.45;;;6.30;;
32533;SDS011;18973;48.580;8.912;2023-06-22T14:14:57;17.10;;;6.88;;
32533;SDS011;18973;48.580;8.912;2023-06-22T14:17:22;12.82;;;5.63;;
32533;SDS011;18973;48.580;8.912;2023-06-22T14:19:50;12.13;;;4.97;;
32533;SDS011;18973;48.580;8.912;2023-06-22T14:22:18;12.88;;;4.15;;
32533;SDS011;18973;48.580;8.912;2023-06-22T14:24:44;13.00;;;3.95;;
32533;SDS011;18973;48.580;8.912;2023-06-22T14:27:10;17.15;;;3.95;;
32533;SDS011;18973;48.580;8.912;2023-06-22T14:29:36;16.40;;;3.92;;
32533;SDS011;18973;48.580;8.912;2023-06-22T14:32:02;18.38;;;3.58;;
32533;SDS011;18973;48.580;8.912;2023-06-22T14:34:27;16.80;;;4.03;;
32533;SDS011;18973;48.580;8.912;2023-06-22T14:36:53;19.02;;;4.10;;
32533;SDS011;18973;48.580;8.912;2023-06-22T14:39:19;26.65;;;4.15;;